Time;durP1;ratioP1;P1;durP2;ratioP2;P2;SDS_P1;SDS_P2;PMS_P1;PMS_P2;Temp;Humidity;BMP_temperature;BMP_pressure;BME280_temperature;BME280_humidity;BME280_pressure;Samples;Min_cycle;Max_cycle;Signal;HPM_P1;HPM_P2
2022/11/15 00:00:56;;;;;;;38.47;18.50;;;;;;;11.33;100.00;99620.63;5085682;28;20147;-84
2022/11/15 00:03:25;;;;;;;42.40;19.63;;;;;;;11.15;100.00;99612.88;5084979;28;20524;-84
2022/11/15 00:05:52;;;;;;;39.40;17.30;;;;;;;11.44;100.00;99617.34;5086535;28;20051;-84
2022/11/15 00:08:19;;;;;;;41.72;20.50;;;;;;;11.10;100.00;99601.00;5068692;28;20432;-84
2022/11/15 00:11:00;;;;;;;28.75;17.08;;;;;;;11.38;100.00;99585.38;5086526;28;20044;-84
2022/11/15 00:13:27;;;;;;;35.22;20.00;;;;;;;11.11;100.00;99584.34;5081686;28;20055;-82
2022/11/15 00:15:58;;;;;;;35.22;18.27;;;;;;;11.44;100.00;99591.16;5099998;28;20062;-82
2022/11/15 00:18:25;;;;;;;33.80;19.13;;;;;;;11.49;100.00;99602.22;5085032;28;20481;-85
2022/11/15 00:20:52;;;;;;;35.22;17.83;;;;;;;11.48;100.00;99595.31;5081811;28;20114;-82
2022/11/15 00:23:19;;;;;;;35.83;18.58;;;;;;;11.50;100.00;99594.25;5089745;28;20047;-82
2022/11/15 00:25:45;;;;;;;38.88;21.00;;;;;;;11.32;100.00;99608.47;5091511;28;20052;-82
2022/11/15 00:28:12;;;;;;;44.60;21.10;;;;;;;11.24;100.00;99600.19;5090600;28;20468;-82
2022/11/15 00:30:39;;;;;;;40.78;22.05;;;;;;;11.26;100.00;99586.09;5091481;28;20546;-83
2022/11/15 00:33:06;;;;;;;39.42;19.95;;;;;;;11.36;100.00;99587.22;5091757;28;20117;-83
2022/11/15 00:35:34;;;;;;;41.75;21.45;;;;;;;11.14;100.00;99582.41;5079974;28;20044;-83
2022/11/15 00:38:01;;;;;;;41.78;21.23;;;;;;;11.36;100.00;99568.88;5073525;28;20059;-84
2022/11/15 00:40:28;;;;;;;36.42;19.83;;;;;;;11.65;100.00;99573.28;5073297;28;20047;-84
2022/11/15 00:42:55;;;;;;;48.80;22.05;;;;;;;11.68;100.00;99588.84;5079029;28;20048;-83
2022/11/15 00:45:22;;;;;;;39.17;21.92;;;;;;;11.62;100.00;99561.22;5070817;28;20048;-83
2022/11/15 00:47:50;;;;;;;45.08;22.55;;;;;;;11.54;100.00;99563.47;5096550;28;20052;-82
2022/11/15 00:50:17;;;;;;;39.17;21.50;;;;;;;11.50;100.00;99539.22;5060397;28;20057;-82
2022/11/15 00:52:44;;;;;;;48.08;22.52;;;;;;;11.67;100.00;99543.44;5092777;28;20048;-84
2022/11/15 00:55:15;;;;;;;40.97;20.58;;;;;;;11.86;100.00;99560.66;5064946;28;20047;-83
2022/11/15 00:57:43;;;;;;;47.85;22.67;;;;;;;11.54;100.00;99553.84;5079856;28;20894;-84
2022/11/15 01:00:11;;;;;;;41.35;21.35;;;;;;;11.69;100.00;99552.06;5091553;28;20052;-84
2022/11/15 01:02:38;;;;;;;43.63;20.73;;;;;;;11.39;100.00;99525.94;5089455;28;20526;-83
2022/11/15 01:05:05;;;;;;;39.33;19.50;;;;;;;11.73;100.00;99537.81;5090116;28;20055;-83
2022/11/15 01:07:32;;;;;;;39.13;18.50;;;;;;;11.80;100.00;99513.84;5091950;28;20048;-83
2022/11/15 01:09:59;;;;;;;46.63;22.92;;;;;;;11.75;100.00;99527.22;5079189;28;20056;-83
2022/11/15 01:12:26;;;;;;;36.83;19.40;;;;;;;11.59;100.00;99495.88;5098988;28;20467;-83
2022/11/15 01:14:53;;;;;;;36.03;19.20;;;;;;;11.91;100.00;99517.50;5090885;28;20044;-84
2022/11/15 01:17:19;;;;;;;38.63;20.33;;;;;;;11.53;100.00;99470.88;5100650;28;20052;-82
2022/11/15 01:19:46;;;;;;;40.00;18.85;;;;;;;11.76;100.00;99505.31;5091653;28;20044;-82
2022/11/15 01:22:13;;;;;;;42.90;19.63;;;;;;;11.75;100.00;99514.94;5072939;28;20370;-83
2022/11/15 01:24:40;;;;;;;37.03;18.48;;;;;;;11.79;100.00;99505.13;5106481;28;20409;-83
2022/11/15 01:27:06;;;;;;;34.60;17.33;;;;;;;11.72;100.00;99509.06;5081958;28;20078;-83
2022/11/15 01:29:33;;;;;;;33.67;19.45;;;;;;;11.86;100.00;99518.69;5091909;28;20180;-83
2022/11/15 01:32:00;;;;;;;36.72;18.17;;;;;;;11.85;100.00;99522.28;5092371;28;20119;-83
2022/11/15 01:34:27;;;;;;;32.42;17.85;;;;;;;11.89;100.00;99506.22;5091515;28;20500;-83
2022/11/15 01:36:54;;;;;;;39.75;18.55;;;;;;;11.82;100.00;99504.09;5080557;28;20044;-83
2022/11/15 01:39:20;;;;;;;41.42;20.13;;;;;;;11.70;100.00;99526.66;5091081;28;20101;-83
2022/11/15 01:41:47;;;;;;;35.97;17.95;;;;;;;11.84;100.00;99491.72;5091170;28;20055;-83
2022/11/15 01:44:35;;;;;;;44.03;18.20;;;;;;;11.98;100.00;99517.13;5091678;28;20044;-83
2022/11/15 01:47:11;;;;;;;35.60;18.88;;;;;;;11.70;100.00;99498.66;5085066;28;20116;-83
2022/11/15 01:49:50;;;;;;;37.63;19.08;;;;;;;11.98;100.00;99520.59;5098907;28;20058;-83
2022/11/15 01:52:20;;;;;;;35.55;17.55;;;;;;;11.98;100.00;99504.00;5072289;28;20052;-83
2022/11/15 01:54:53;;;;;;;31.80;18.15;;;;;;;11.93;100.00;99499.91;5072519;28;20055;-82
2022/11/15 01:57:20;;;;;;;45.28;19.23;;;;;;;11.93;100.00;99501.66;5072914;28;20089;-82
2022/11/15 01:59:47;;;;;;;37.28;19.45;;;;;;;11.45;100.00;99443.44;5091021;28;20052;-83
2022/11/15 02:02:14;;;;;;;38.92;20.33;;;;;;;11.53;100.00;99485.78;5088388;28;20412;-83
2022/11/15 02:04:46;;;;;;;42.78;22.45;;;;;;;11.54;100.00;99503.16;5106766;28;20047;-83
2022/11/15 02:07:17;;;;;;;40.40;20.00;;;;;;;11.42;100.00;99454.13;5081699;28;20044;-84
2022/11/15 02:09:45;;;;;;;47.00;21.52;;;;;;;11.83;100.00;99501.38;5090734;28;20134;-83
2022/11/15 02:12:18;;;;;;;45.80;19.35;;;;;;;11.92;100.00;99495.59;5086175;28;20101;-84
2022/11/15 02:14:51;;;;;;;45.55;22.63;;;;;;;11.62;100.00;99484.38;5080391;28;20538;-84
2022/11/15 02:17:47;;;;;;;34.97;18.40;;;;;;;11.85;100.00;99475.91;5072703;28;20116;-85
2022/11/15 02:20:48;;;;;;;42.65;20.58;;;;;;;11.96;100.00;99491.00;5091099;28;20443;-82
2022/11/15 02:23:33;;;;;;;47.63;19.73;;;;;;;11.76;100.00;99500.91;5079480;28;20059;-84
2022/11/15 02:26:24;;;;;;;37.35;19.90;;;;;;;11.96;100.00;99507.56;5072215;28;20056;-83
2022/11/15 02:29:08;;;;;;;46.30;21.27;;;;;;;11.93;100.00;99481.53;5073333;28;20097;-83
2022/11/15 02:31:53;;;;;;;46.67;21.17;;;;;;;11.89;100.00;99480.00;5080374;28;20049;-83
2022/11/15 02:34:40;;;;;;;39.60;21.50;;;;;;;11.87;100.00;99471.41;5078863;28;20106;-83
2022/11/15 02:37:15;;;;;;;37.53;21.00;;;;;;;12.01;100.00;99475.81;5091010;28;20492;-83
2022/11/15 02:39:57;;;;;;;35.70;21.38;;;;;;;11.55;100.00;99478.66;5072993;28;20465;-84
2022/11/15 02:45:22;;;;;;;38.83;20.83;;;;;;;11.67;100.00;99449.06;5089250;28;20052;-83
2022/11/15 02:47:53;;;;;;;39.53;20.33;;;;;;;11.66;100.00;99422.94;5072631;28;20044;-83
2022/11/15 02:50:24;;;;;;;38.30;20.55;;;;;;;11.70;100.00;99437.53;5072083;28;20109;-83
2022/11/15 02:52:51;;;;;;;37.25;19.38;;;;;;;11.76;100.00;99421.41;5072576;28;20093;-83
2022/11/15 02:55:31;;;;;;;35.00;18.48;;;;;;;11.49;100.00;99410.88;5090011;28;20048;-83
2022/11/15 02:58:32;;;;;;;37.00;18.67;;;;;;;11.93;100.00;99423.84;5089858;28;20048;-83
2022/11/15 03:01:02;;;;;;;31.55;15.93;;;;;;;11.71;100.00;99389.41;5072413;28;20544;-83
2022/11/15 03:03:45;;;;;;;33.60;16.13;;;;;;;11.76;100.00;99419.63;5071656;28;20056;-84
2022/11/15 03:06:23;;;;;;;34.15;16.85;;;;;;;11.79;100.00;99410.72;5105198;28;20089;-84
2022/11/15 03:09:26;;;;;;;44.60;16.75;;;;;;;11.74;100.00;99410.19;5091008;28;20052;-84
2022/11/15 03:11:59;;;;;;;29.60;16.15;;;;;;;11.44;100.00;99373.63;5030426;28;20069;-83
2022/11/15 03:14:39;;;;;;;30.33;16.02;;;;;;;11.53;100.00;99388.78;5069042;28;20055;-83
2022/11/15 03:17:17;;;;;;;33.65;15.63;;;;;;;11.57;100.00;99388.47;5075464;28;20048;-84
2022/11/15 03:19:51;;;;;;;32.97;16.08;;;;;;;11.45;100.00;99356.97;5075767;28;20519;-83
2022/11/15 03:22:21;;;;;;;36.58;15.63;;;;;;;11.62;100.00;99382.13;5076271;28;20052;-83
2022/11/15 03:24:54;;;;;;;34.60;15.38;;;;;;;11.73;100.00;99388.34;5075455;28;20543;-84
2022/11/15 03:27:26;;;;;;;31.40;15.65;;;;;;;11.74;100.00;99376.94;5076078;28;20462;-83
2022/11/15 03:29:59;;;;;;;35.10;17.85;;;;;;;11.57;100.00;99345.69;5075905;28;20048;-84
2022/11/15 03:32:30;;;;;;;36.75;16.55;;;;;;;11.72;100.00;99399.78;5074985;28;20056;-84
2022/11/15 03:35:03;;;;;;;32.88;17.00;;;;;;;11.65;100.00;99379.28;5108094;28;20050;-83
2022/11/15 03:38:02;;;;;;;34.05;16.20;;;;;;;11.69;100.00;99367.69;5075457;28;20105;-83
2022/11/15 03:40:46;;;;;;;36.00;17.55;;;;;;;11.60;100.00;99371.72;5075293;28;20400;-83
2022/11/15 03:43:39;;;;;;;39.08;17.63;;;;;;;11.76;100.00;99368.97;5094035;28;20044;-83
2022/11/15 03:46:32;;;;;;;40.60;19.00;;;;;;;11.83;100.00;99358.91;5087764;28;20477;-83
2022/11/15 03:49:17;;;;;;;40.63;16.97;;;;;;;11.54;100.00;99356.38;5074488;28;20056;-83
2022/11/15 03:51:44;;;;;;;35.53;17.10;;;;;;;11.52;100.00;99340.75;5075450;28;20450;-84
2022/11/15 03:54:13;;;;;;;39.42;17.27;;;;;;;11.56;100.00;99341.38;5075128;28;20105;-83
2022/11/15 03:56:40;;;;;;;38.20;18.23;;;;;;;11.27;100.00;99340.63;5074967;28;20059;-83
2022/11/15 03:59:07;;;;;;;36.65;18.73;;;;;;;11.18;100.00;99289.66;5093445;28;20060;-84
2022/11/15 04:01:33;;;;;;;33.80;18.83;;;;;;;11.46;100.00;99332.44;5067630;28;20090;-84
2022/11/15 04:04:00;;;;;;;37.35;18.98;;;;;;;11.33;100.00;99321.88;5086587;28;20114;-84
2022/11/15 04:06:27;;;;;;;41.00;20.13;;;;;;;11.25;100.00;99303.19;5093111;28;20457;-84
2022/11/15 04:08:54;;;;;;;36.03;19.05;;;;;;;11.37;100.00;99302.44;5075714;28;20040;-84
2022/11/15 04:11:21;;;;;;;40.78;20.48;;;;;;;11.34;100.00;99289.50;5074940;28;20098;-83
2022/11/15 04:13:48;;;;;;;39.67;22.05;;;;;;;11.27;100.00;99306.56;5092736;28;20044;-84
2022/11/15 04:16:14;;;;;;;36.67;20.30;;;;;;;11.35;100.00;99306.91;5097172;28;20093;-84
2022/11/15 04:18:41;;;;;;;45.33;21.42;;;;;;;11.42;100.00;99302.13;5092645;28;20044;-83
2022/11/15 04:24:12;;;;;;;40.80;22.33;;;;;;;11.21;100.00;99319.09;5091958;28;20044;-83
2022/11/15 04:26:38;;;;;;;41.80;22.50;;;;;;;11.17;100.00;99301.91;5074155;28;20093;-84
2022/11/15 04:31:50;;;;;;;42.03;21.30;;;;;;;11.13;100.00;99300.41;5086999;28;20044;-84
2022/11/15 04:34:17;;;;;;;44.17;24.13;;;;;;;11.19;100.00;99300.03;5074494;28;20048;-84
2022/11/15 04:39:29;;;;;;;43.17;22.65;;;;;;;11.06;100.00;99300.91;5089836;28;20048;-84
2022/11/15 04:41:56;;;;;;;41.97;20.85;;;;;;;11.03;100.00;99288.84;5098634;28;20392;-84
2022/11/15 04:44:22;;;;;;;42.70;20.88;;;;;;;11.33;100.00;99283.44;5108461;28;20443;-84
2022/11/15 04:46:49;;;;;;;44.00;21.08;;;;;;;11.21;100.00;99274.56;5075126;28;20615;-84
2022/11/15 04:49:16;;;;;;;45.10;20.88;;;;;;;11.08;100.00;99267.59;5092229;28;20412;-85
2022/11/15 04:51:43;;;;;;;37.30;19.95;;;;;;;11.21;100.00;99273.75;5074456;28;20097;-84
2022/11/15 04:54:10;;;;;;;44.33;22.15;;;;;;;11.14;100.00;99275.91;5073666;28;20105;-85
2022/11/15 04:56:37;;;;;;;43.67;22.00;;;;;;;11.11;100.00;99252.50;5073741;28;20121;-84
2022/11/15 04:59:03;;;;;;;42.45;21.88;;;;;;;10.94;100.00;99247.50;5073329;28;20043;-84
2022/11/15 05:01:30;;;;;;;40.47;22.40;;;;;;;11.14;100.00;99264.59;5065378;28;20093;-84
2022/11/15 05:06:42;;;;;;;50.00;24.70;;;;;;;10.85;100.00;99246.28;5092005;28;20063;-85
2022/11/15 05:09:09;;;;;;;48.42;23.13;;;;;;;11.19;100.00;99272.97;5074288;28;20048;-87
2022/11/15 05:11:36;;;;;;;40.88;21.80;;;;;;;11.28;100.00;99254.06;5074120;28;20044;-84
2022/11/15 05:14:02;;;;;;;43.55;23.85;;;;;;;11.19;100.00;99238.91;5075488;28;20093;-83
2022/11/15 05:16:29;;;;;;;52.67;23.70;;;;;;;11.16;100.00;99271.41;5073213;28;20048;-83
2022/11/15 05:18:56;;;;;;;44.60;24.20;;;;;;;11.29;100.00;99247.88;5091794;28;20174;-85
2022/11/15 05:21:23;;;;;;;48.00;24.35;;;;;;;11.40;100.00;99255.03;5092049;28;20051;-85
2022/11/15 05:23:50;;;;;;;51.95;25.10;;;;;;;11.32;100.00;99225.88;5073484;28;20036;-84
2022/11/15 05:26:18;;;;;;;50.40;25.73;;;;;;;11.32;100.00;99241.59;5090912;28;20113;-85
2022/11/15 05:28:45;;;;;;;50.20;27.27;;;;;;;11.38;100.00;99249.06;5091966;28;20052;-84
2022/11/15 05:31:15;;;;;;;57.15;26.33;;;;;;;11.34;100.00;99252.81;5073751;28;20056;-84
2022/11/15 05:33:43;;;;;;;48.45;23.55;;;;;;;11.46;100.00;99241.56;5091850;28;20411;-84
2022/11/15 05:36:35;;;;;;;55.13;25.40;;;;;;;11.57;100.00;99246.09;5090666;28;20052;-84
2022/11/15 05:39:04;;;;;;;40.67;21.88;;;;;;;11.70;100.00;99246.94;5077503;28;20048;-84
2022/11/15 05:41:36;;;;;;;55.25;28.23;;;;;;;11.39;100.00;99229.78;5072910;28;20048;-84
2022/11/15 05:44:07;;;;;;;53.85;27.55;;;;;;;11.30;100.00;99233.84;5085855;28;20055;-85
2022/11/15 05:46:36;;;;;;;50.35;25.50;;;;;;;11.69;100.00;99223.47;5091572;28;20659;-85
2022/11/15 05:49:07;;;;;;;53.10;28.25;;;;;;;11.44;100.00;99227.72;5110531;27;20496;-85
2022/11/15 05:51:34;;;;;;;47.72;25.77;;;;;;;11.40;100.00;99211.34;5081968;28;20127;-85
2022/11/15 05:54:01;;;;;;;54.17;27.42;;;;;;;11.53;100.00;99227.09;5072749;28;20040;-84
2022/11/15 05:56:29;;;;;;;51.35;29.48;;;;;;;11.49;100.00;99225.63;5091208;28;20093;-85
2022/11/15 05:58:57;;;;;;;56.45;30.48;;;;;;;11.65;100.00;99198.38;5073605;28;20048;-85
2022/11/15 06:01:26;;;;;;;53.47;29.02;;;;;;;11.55;100.00;99178.03;5108927;27;20060;-85
2022/11/15 06:03:53;;;;;;;54.15;28.25;;;;;;;11.52;100.00;99180.03;5068010;28;20047;-84
2022/11/15 06:06:20;;;;;;;56.13;29.80;;;;;;;11.53;100.00;99211.38;5071708;28;20044;-84
2022/11/15 06:08:47;;;;;;;55.20;27.60;;;;;;;11.49;100.00;99182.84;5073530;28;20075;-86
2022/11/15 06:11:14;;;;;;;56.28;28.83;;;;;;;11.57;100.00;99188.44;5064172;28;20056;-85
2022/11/15 06:13:41;;;;;;;51.80;30.20;;;;;;;11.59;100.00;99176.88;5064074;28;20040;-84
2022/11/15 06:16:08;;;;;;;54.65;30.45;;;;;;;11.49;100.00;99167.97;5068089;28;20374;-85
2022/11/15 06:18:36;;;;;;;52.10;27.88;;;;;;;11.57;100.00;99147.31;5066748;28;20048;-86
2022/11/15 06:21:04;;;;;;;53.83;31.40;;;;;;;11.77;100.00;99174.84;5079280;28;20539;-85
2022/11/15 06:23:34;;;;;;;51.50;29.30;;;;;;;11.72;100.00;99169.06;5069674;28;20071;-84
2022/11/15 06:26:02;;;;;;;50.45;30.48;;;;;;;11.74;100.00;99169.78;5086515;28;20101;-86
2022/11/15 06:28:31;;;;;;;56.75;31.30;;;;;;;11.82;100.00;99148.28;5068553;28;20055;-85
2022/11/15 06:31:10;;;;;;;62.50;30.67;;;;;;;11.86;100.00;99170.72;5101131;28;20063;-85
2022/11/15 06:33:40;;;;;;;51.67;27.73;;;;;;;11.74;100.00;99172.41;5084471;28;20120;-86
2022/11/15 06:36:13;;;;;;;53.75;29.65;;;;;;;11.69;100.00;99168.44;5083269;28;20537;-87
2022/11/15 06:38:44;;;;;;;52.85;29.67;;;;;;;11.75;100.00;99160.97;5065862;28;20074;-83
2022/11/15 06:41:13;;;;;;;53.75;29.20;;;;;;;11.66;100.00;99179.94;5069785;28;20044;-83
2022/11/15 06:43:40;;;;;;;49.35;29.17;;;;;;;11.67;100.00;99150.16;5072304;28;20040;-85
2022/11/15 06:46:08;;;;;;;51.13;29.90;;;;;;;11.76;100.00;99148.72;5086163;28;20048;-84
2022/11/15 06:48:36;;;;;;;55.40;26.83;;;;;;;11.88;100.00;99155.75;5081551;28;20043;-85
2022/11/15 06:51:04;;;;;;;56.40;28.92;;;;;;;11.59;100.00;99134.94;5075234;28;20059;-84
2022/11/15 06:53:31;;;;;;;54.88;28.50;;;;;;;11.74;100.00;99153.22;5071162;28;20093;-84
2022/11/15 06:56:04;;;;;;;59.85;29.67;;;;;;;11.78;100.00;99144.19;5087490;28;20501;-85
2022/11/15 06:58:31;;;;;;;52.60;29.27;;;;;;;11.75;100.00;99149.66;5082034;28;20128;-86
2022/11/15 07:01:03;;;;;;;58.95;31.10;;;;;;;11.85;100.00;99144.63;5083858;28;20098;-86
2022/11/15 07:03:30;;;;;;;50.58;25.38;;;;;;;12.08;100.00;99159.66;5073433;28;20044;-86
2022/11/15 07:05:58;;;;;;;60.78;28.45;;;;;;;11.79;100.00;99145.84;5093334;28;20127;-87
2022/11/15 07:08:32;;;;;;;52.90;28.50;;;;;;;12.06;100.00;99145.81;5088943;28;20050;-85
2022/11/15 07:11:01;;;;;;;45.15;23.98;;;;;;;11.88;100.00;99144.41;5093199;28;20692;-84
2022/11/15 07:13:32;;;;;;;57.90;26.40;;;;;;;11.68;100.00;99143.97;5069433;28;20086;-85
2022/11/15 07:16:05;;;;;;;54.22;24.50;;;;;;;11.90;100.00;99156.50;5072168;28;20127;-86
2022/11/15 07:18:40;;;;;;;50.05;23.33;;;;;;;11.89;100.00;99135.59;5101969;28;20067;-87
2022/11/15 07:21:09;;;;;;;51.17;24.85;;;;;;;11.96;100.00;99156.06;5102732;28;20055;-87
2022/11/15 07:23:38;;;;;;;53.13;25.65;;;;;;;12.01;100.00;99150.53;5084640;28;20056;-87
2022/11/15 07:26:05;;;;;;;46.97;24.60;;;;;;;11.90;100.00;99151.25;5069887;28;20059;-87
2022/11/15 07:28:32;;;;;;;46.42;25.08;;;;;;;12.01;100.00;99158.41;5069762;28;20107;-88
2022/11/15 07:31:06;;;;;;;56.25;27.02;;;;;;;11.69;100.00;99156.16;5098710;28;20102;-87
2022/11/15 07:33:34;;;;;;;47.35;23.95;;;;;;;11.77;100.00;99134.63;5077507;28;20044;-87
2022/11/15 07:36:06;;;;;;;50.08;24.67;;;;;;;12.01;100.00;99155.78;5099098;27;20044;-88
2022/11/15 07:38:34;;;;;;;47.72;23.38;;;;;;;11.87;100.00;99154.06;5074647;28;20704;-88
2022/11/15 07:41:08;;;;;;;51.80;23.85;;;;;;;11.97;100.00;99141.19;5073026;28;20463;-88
2022/11/15 07:43:35;;;;;;;54.25;25.15;;;;;;;11.53;100.00;99100.47;5093990;28;20048;-88
2022/11/15 07:46:09;;;;;;;52.42;26.27;;;;;;;11.80;100.00;99110.00;5076784;28;20516;-85
2022/11/15 07:48:37;;;;;;;55.90;26.73;;;;;;;11.77;100.00;99127.63;5075132;28;20052;-85
2022/11/15 07:51:14;;;;;;;51.08;25.17;;;;;;;11.83;100.00;99130.75;5073966;28;20058;-85
2022/11/15 07:53:42;;;;;;;46.03;25.70;;;;;;;11.48;100.00;99085.03;5093838;28;20123;-84
2022/11/15 07:56:09;;;;;;;48.47;24.75;;;;;;;11.87;100.00;99172.41;5092367;28;20048;-85
2022/11/15 07:58:36;;;;;;;56.15;27.42;;;;;;;11.44;100.00;99135.13;5091938;28;20051;-86
2022/11/15 08:01:08;;;;;;;49.03;25.17;;;;;;;11.46;100.00;99121.00;5068470;28;20551;-85
2022/11/15 08:03:35;;;;;;;45.00;25.00;;;;;;;11.39;100.00;99117.94;5075877;28;20040;-86
2022/11/15 08:06:02;;;;;;;54.95;25.42;;;;;;;11.77;100.00;99135.50;5077151;28;20055;-84
2022/11/15 08:08:29;;;;;;;46.33;24.05;;;;;;;11.91;100.00;99149.47;5098038;28;20054;-85
2022/11/15 08:10:59;;;;;;;57.05;25.92;;;;;;;11.62;100.00;99147.00;5098284;28;20048;-84
2022/11/15 08:13:26;;;;;;;49.10;26.58;;;;;;;11.86;100.00;99146.28;5080495;28;20055;-84
2022/11/15 08:16:00;;;;;;;55.08;24.48;;;;;;;11.73;100.00;99107.78;5098969;28;20067;-84
2022/11/15 08:18:28;;;;;;;49.70;26.67;;;;;;;11.85;100.00;99119.22;5100494;28;20048;-85
2022/11/15 08:20:59;;;;;;;58.83;26.65;;;;;;;11.34;100.00;99070.25;5080125;28;20069;-84
2022/11/15 08:23:26;;;;;;;53.30;26.17;;;;;;;11.94;100.00;99150.09;5080516;28;20066;-84
2022/11/15 08:25:59;;;;;;;59.13;27.27;;;;;;;11.57;100.00;99080.94;5098045;28;20040;-84
2022/11/15 08:28:26;;;;;;;57.85;27.00;;;;;;;11.67;100.00;99118.72;5099678;28;20040;-84
2022/11/15 08:30:52;;;;;;;55.53;26.73;;;;;;;11.57;100.00;99080.94;5079369;28;20044;-84
2022/11/15 08:33:19;;;;;;;60.08;28.33;;;;;;;11.67;100.00;99086.38;5109041;28;20413;-83
2022/11/15 08:35:46;;;;;;;54.33;28.15;;;;;;;11.43;100.00;99074.03;5080455;28;20503;-84
2022/11/15 08:38:13;;;;;;;61.92;28.58;;;;;;;11.56;100.00;99085.38;5078654;28;20048;-84
2022/11/15 08:40:40;;;;;;;59.53;28.83;;;;;;;11.65;100.00;99099.63;5080887;28;20051;-84
2022/11/15 08:43:07;;;;;;;59.50;28.20;;;;;;;11.50;100.00;99098.88;5091338;28;20054;-84
2022/11/15 08:45:35;;;;;;;52.03;27.60;;;;;;;11.68;100.00;99109.06;5101397;28;20086;-85
2022/11/15 08:48:03;;;;;;;52.25;27.85;;;;;;;11.48;100.00;99107.78;5103980;28;20044;-85
2022/11/15 08:50:30;;;;;;;49.13;26.13;;;;;;;11.58;100.00;99091.34;5087426;28;20063;-86
2022/11/15 08:52:57;;;;;;;59.58;29.77;;;;;;;11.34;100.00;99078.09;5109076;28;20082;-86
2022/11/15 08:55:24;;;;;;;51.67;27.95;;;;;;;11.33;100.00;99059.84;5096747;28;20052;-84
2022/11/15 08:57:51;;;;;;;51.97;28.17;;;;;;;11.28;100.00;99098.63;5096095;28;20044;-85
2022/11/15 09:00:19;;;;;;;44.60;25.05;;;;;;;11.14;100.00;99058.47;5085534;28;20822;-86
2022/11/15 09:02:46;;;;;;;47.70;24.73;;;;;;;10.95;100.00;99045.75;5084814;28;20043;-85
2022/11/15 09:05:15;;;;;;;57.30;26.27;;;;;;;10.85;100.00;99010.66;5101834;28;20051;-85
2022/11/15 09:07:42;;;;;;;53.47;24.48;;;;;;;10.81;100.00;98988.25;5098565;28;20075;-84
2022/11/15 09:10:09;;;;;;;48.17;25.63;;;;;;;11.23;100.00;99064.88;5077109;28;20052;-87
2022/11/15 09:12:37;;;;;;;53.45;26.85;;;;;;;11.19;100.00;99031.97;5098981;28;20055;-85
2022/11/15 09:15:05;;;;;;;51.65;27.10;;;;;;;11.11;100.00;99026.41;5097450;28;20044;-85
2022/11/15 09:17:32;;;;;;;59.03;25.35;;;;;;;11.17;100.00;99000.66;5086308;28;20040;-85
2022/11/15 09:19:59;;;;;;;46.25;25.02;;;;;;;11.01;100.00;99015.69;5083303;28;20468;-85
2022/11/15 09:22:26;;;;;;;54.65;28.58;;;;;;;10.94;100.00;98996.09;5091717;28;20059;-86
2022/11/15 09:24:52;;;;;;;41.00;24.88;;;;;;;11.24;100.00;99031.66;5098551;28;20040;-85
2022/11/15 09:27:19;;;;;;;43.80;25.65;;;;;;;11.29;100.00;99019.94;5080914;28;20093;-85
2022/11/15 09:29:46;;;;;;;51.50;25.17;;;;;;;11.26;100.00;99021.91;5081391;28;20052;-85
2022/11/15 09:32:13;;;;;;;57.88;25.73;;;;;;;11.06;100.00;99015.41;5099822;28;20048;-84
2022/11/15 09:34:40;;;;;;;62.35;27.40;;;;;;;11.42;100.00;99047.91;5101409;28;20044;-85
2022/11/15 09:37:06;;;;;;;47.03;25.13;;;;;;;11.31;100.00;99040.78;5100949;28;20052;-84
2022/11/15 09:39:33;;;;;;;49.20;24.27;;;;;;;11.31;100.00;99004.94;5102696;28;20140;-84
2022/11/15 09:42:22;;;;;;;64.10;26.02;;;;;;;11.49;100.00;98976.66;5101478;28;20060;-85
2022/11/15 09:45:07;;;;;;;54.22;25.58;;;;;;;11.65;100.00;99051.59;5101077;28;20047;-86
2022/11/15 09:47:55;;;;;;;47.30;25.40;;;;;;;11.66;100.00;99013.94;5094157;28;20047;-85
2022/11/15 09:50:38;;;;;;;52.50;24.73;;;;;;;11.39;100.00;98989.53;5073620;28;20044;-85
2022/11/15 09:53:12;;;;;;;43.80;23.77;;;;;;;11.78;100.00;99013.94;5101891;28;20044;-85
2022/11/15 09:55:56;;;;;;;48.70;24.83;;;;;;;11.63;100.00;98982.69;5083301;28;20143;-84
2022/11/15 09:58:41;;;;;;;51.83;23.38;;;;;;;11.86;100.00;99021.25;5101077;28;20058;-85
2022/11/15 10:01:19;;;;;;;48.92;22.10;;;;;;;11.20;100.00;98965.53;5087899;28;20055;-85
2022/11/15 10:03:46;;;;;;;45.63;24.20;;;;;;;11.49;100.00;99031.69;5083452;28;20048;-85
2022/11/15 10:06:24;;;;;;;44.83;22.10;;;;;;;11.40;100.00;98977.25;5095765;28;20160;-83
2022/11/15 10:08:54;;;;;;;37.25;22.88;;;;;;;11.50;100.00;99009.75;5083015;28;20044;-85
2022/11/15 10:11:35;;;;;;;45.08;23.77;;;;;;;11.32;100.00;98969.09;5087846;28;20051;-85
2022/11/15 10:14:17;;;;;;;47.35;21.70;;;;;;;11.23;100.00;98967.97;5101813;28;20048;-85
2022/11/15 10:16:56;;;;;;;47.80;24.48;;;;;;;11.77;100.00;99003.53;5101165;28;20076;-86
2022/11/15 10:19:52;;;;;;;49.10;22.85;;;;;;;11.71;100.00;98993.50;5079669;28;20459;-85
2022/11/15 10:22:35;;;;;;;43.88;22.60;;;;;;;11.79;100.00;98985.91;5089499;28;20111;-83
2022/11/15 10:25:08;;;;;;;57.42;23.38;;;;;;;11.86;100.00;98975.84;5116724;28;20039;-84
2022/11/15 10:27:35;;;;;;;50.00;22.88;;;;;;;11.57;100.00;98947.28;5082639;28;20102;-82
2022/11/15 10:30:04;;;;;;;58.38;24.45;;;;;;;11.78;100.00;98969.34;5092838;28;20114;-85
2022/11/15 10:32:36;;;;;;;52.88;23.70;;;;;;;11.52;100.00;98941.50;5082812;28;20079;-85
2022/11/15 10:35:22;;;;;;;46.47;24.02;;;;;;;11.61;100.00;98950.50;5099853;28;20048;-84
2022/11/15 10:37:49;;;;;;;45.83;23.17;;;;;;;11.37;100.00;98918.06;5100863;28;20082;-83
2022/11/15 10:40:22;;;;;;;53.38;26.75;;;;;;;11.66;100.00;98966.75;5102023;28;20044;-85
2022/11/15 10:43:12;;;;;;;43.55;24.35;;;;;;;11.46;100.00;98924.44;5101437;28;20040;-85
2022/11/15 10:45:39;;;;;;;61.80;24.77;;;;;;;11.47;100.00;98904.31;5101203;28;20043;-85
2022/11/15 10:48:12;;;;;;;43.28;24.00;;;;;;;11.67;100.00;98929.09;5087477;28;20047;-86
2022/11/15 10:50:41;;;;;;;43.63;23.08;;;;;;;11.32;100.00;98870.38;5087212;28;20077;-85
2022/11/15 10:53:31;;;;;;;48.65;22.77;;;;;;;11.87;100.00;98919.81;5118436;28;20044;-83
2022/11/15 10:56:12;;;;;;;45.38;22.05;;;;;;;11.47;100.00;98889.41;5101296;28;20044;-84
2022/11/15 10:58:51;;;;;;;40.42;21.85;;;;;;;11.43;100.00;98879.28;5085988;28;20055;-84
2022/11/15 11:01:22;;;;;;;48.13;23.40;;;;;;;11.54;100.00;98864.47;5087221;28;20055;-84
2022/11/15 11:04:04;;;;;;;47.45;21.88;;;;;;;11.68;100.00;98904.56;5102285;28;20072;-86
2022/11/15 11:06:55;;;;;;;44.38;21.15;;;;;;;11.47;100.00;98847.47;5076092;28;20162;-85
2022/11/15 11:09:33;;;;;;;48.55;22.63;;;;;;;11.72;100.00;98885.03;5101442;28;20403;-87
2022/11/15 11:12:01;;;;;;;44.05;21.75;;;;;;;11.58;100.00;98859.84;5103509;28;20052;-86
2022/11/15 11:14:33;;;;;;;44.67;21.00;;;;;;;11.48;100.00;98830.00;5091406;28;20318;-86
2022/11/15 11:17:36;;;;;;;47.22;22.60;;;;;;;11.68;100.00;98871.31;5082101;28;20079;-86
2022/11/15 11:20:14;;;;;;;39.47;21.08;;;;;;;11.86;100.00;98879.63;5079932;28;20051;-83
2022/11/15 11:23:16;;;;;;;46.75;21.58;;;;;;;11.91;100.00;98871.47;5104236;28;20055;-85
2022/11/15 11:25:46;;;;;;;40.25;18.83;;;;;;;11.88;100.00;98872.53;5102326;28;20105;-86
2022/11/15 11:28:29;;;;;;;37.17;17.45;;;;;;;12.00;100.00;98872.59;5073991;28;20482;-85
2022/11/15 11:31:28;;;;;;;36.05;15.48;;;;;;;11.62;100.00;98840.31;5099689;28;20090;-88
2022/11/15 11:34:27;;;;;;;35.75;14.40;;;;;;;11.59;100.00;98796.81;5094897;28;20055;-88
2022/11/15 11:37:11;;;;;;;34.05;13.45;;;;;;;11.83;100.00;98842.31;5110135;28;20050;-87
2022/11/15 11:40:00;;;;;;;25.27;11.75;;;;;;;11.93;100.00;98849.44;5094122;28;20066;-86
2022/11/15 11:42:58;;;;;;;32.83;12.20;;;;;;;12.02;100.00;98833.97;5097740;28;20044;-87
2022/11/15 11:46:01;;;;;;;29.67;12.00;;;;;;;11.80;100.00;98790.94;5090011;28;20040;-86